Terminal Aerodrome Forecast
Issued by NWS Dodge City, KS

Home | Current Version | Previous Version | Graphics & Text | Print | Product List | Glossary Off
Versions: 1 2 3 4 5 6 7 8 9 10 11 12 13 14 15 16 17 18 19 20 21 22 23 24 25 26

000
FTUS43 KDDC 280540
TAFDDC
TAF
KDDC 280540Z 2806/2906 16019G25KT P6SM SKC
     FM281500 21012G18KT P6SM SKC
      TEMPO 2900/2904 VRB20G40KT 3SM +TSRA BKN050CB
     FM290400 01011KT P6SM VCTS OVC050CB=

USA.gov is the U.S. government's official web portal to all federal, state and local government web resources and services.